createdAt,value
2022-09-23T00:01:14.973Z,46.00
2022-09-23T00:03:45.585Z,46.10
2022-09-23T00:06:15.315Z,46.60
2022-09-23T00:08:42.480Z,46.10
2022-09-23T00:11:13.608Z,46.10
2022-09-23T00:13:42.944Z,46.10
2022-09-23T00:16:14.627Z,46.10
2022-09-23T00:18:42.674Z,46.70
2022-09-23T00:21:12.391Z,46.60
2022-09-23T00:23:40.701Z,46.10
2022-09-23T00:26:10.028Z,46.10
2022-09-23T00:28:37.591Z,46.10
2022-09-23T00:31:06.098Z,46.10
2022-09-23T00:33:33.282Z,46.10
2022-09-23T00:36:02.082Z,46.10
2022-09-23T00:38:29.516Z,46.10
2022-09-23T00:40:57.029Z,46.20
2022-09-23T00:43:45.673Z,46.10
2022-09-23T00:46:23.657Z,46.20
2022-09-23T00:48:59.666Z,46.20
2022-09-23T00:51:34.576Z,46.20
2022-09-23T00:54:02.820Z,46.20
2022-09-23T00:56:32.984Z,46.20
2022-09-23T00:59:02.198Z,46.20
2022-09-23T01:01:30.011Z,46.20
2022-09-23T01:03:57.860Z,46.20
2022-09-23T01:06:25.333Z,46.10
2022-09-23T01:08:53.374Z,46.20
2022-09-23T01:11:55.578Z,46.10
2022-09-23T01:14:55.192Z,46.10
2022-09-23T01:17:51.836Z,46.10
2022-09-23T01:20:59.495Z,46.10
2022-09-23T01:23:56.173Z,46.10
2022-09-23T01:26:51.803Z,46.10
2022-09-23T01:29:58.593Z,46.10
2022-09-23T01:32:54.687Z,46.00
2022-09-23T01:35:39.051Z,46.10
2022-09-23T01:38:36.402Z,46.00
2022-09-23T01:41:30.147Z,46.00
2022-09-23T01:44:09.793Z,46.00
2022-09-23T01:46:54.122Z,46.00
2022-09-23T01:49:29.333Z,46.00
2022-09-23T01:52:26.038Z,46.10
2022-09-23T01:55:22.411Z,46.10
2022-09-23T01:57:58.211Z,46.10
2022-09-23T02:00:27.177Z,46.00
2022-09-23T02:03:15.477Z,46.00
2022-09-23T02:05:50.929Z,46.10
2022-09-23T02:08:23.980Z,46.00
2022-09-23T02:11:16.561Z,46.10
2022-09-23T02:13:55.946Z,46.10
2022-09-23T02:16:34.815Z,46.10
2022-09-23T02:19:18.834Z,46.10
2022-09-23T02:21:52.491Z,46.10
2022-09-23T02:24:22.491Z,46.10
2022-09-23T02:27:26.116Z,46.10
2022-09-23T02:30:03.269Z,46.00
2022-09-23T02:33:00.020Z,46.00
2022-09-23T02:35:40.415Z,46.00
2022-09-23T02:38:14.907Z,46.10
2022-09-23T02:41:07.554Z,46.10
2022-09-23T02:44:06.814Z,46.10
2022-09-23T02:46:34.676Z,46.10
2022-09-23T02:49:11.362Z,46.10
2022-09-23T02:51:39.765Z,46.10
2022-09-23T02:54:12.583Z,46.10
2022-09-23T02:56:40.199Z,46.10
2022-09-23T02:59:09.724Z,46.10
2022-09-23T03:02:17.668Z,46.10
2022-09-23T03:04:58.628Z,46.10
2022-09-23T03:08:05.572Z,46.10
2022-09-23T03:11:04.496Z,46.00
2022-09-23T03:13:51.667Z,45.90
2022-09-23T03:16:44.020Z,45.90
2022-09-23T03:19:42.423Z,45.90
2022-09-23T03:22:15.492Z,45.90
2022-09-23T03:24:45.039Z,45.90
2022-09-23T03:27:18.813Z,45.90
2022-09-23T03:29:49.092Z,45.90
2022-09-23T03:32:19.381Z,45.90
2022-09-23T03:34:47.449Z,45.90
2022-09-23T03:37:33.788Z,45.90
2022-09-23T03:40:22.415Z,45.90
2022-09-23T03:42:49.515Z,45.90
2022-09-23T03:45:20.634Z,45.90
2022-09-23T03:47:47.919Z,45.90
2022-09-23T03:50:17.428Z,45.80
2022-09-23T03:52:44.957Z,45.90
2022-09-23T03:55:12.163Z,45.90
2022-09-23T03:57:39.821Z,45.90
2022-09-23T04:00:07.757Z,45.80
2022-09-23T04:02:35.095Z,45.80
2022-09-23T04:05:02.193Z,45.80
2022-09-23T04:07:29.199Z,45.80
2022-09-23T04:09:56.186Z,45.90
2022-09-23T04:12:23.331Z,45.90
2022-09-23T04:14:50.352Z,45.90
2022-09-23T04:17:17.732Z,45.90
2022-09-23T04:19:45.301Z,46.00
2022-09-23T04:22:12.334Z,46.00
2022-09-23T04:24:39.379Z,46.00
2022-09-23T04:27:06.682Z,46.00
2022-09-23T04:29:33.704Z,46.00
2022-09-23T04:32:00.815Z,46.20
2022-09-23T04:34:28.029Z,46.20
2022-09-23T04:36:55.121Z,46.20
2022-09-23T04:39:22.150Z,46.20
2022-09-23T04:41:49.187Z,46.20
2022-09-23T04:44:16.572Z,46.10
2022-09-23T04:46:48.378Z,46.10
2022-09-23T04:49:16.499Z,46.00
2022-09-23T04:51:43.850Z,45.80
2022-09-23T04:54:12.237Z,45.70
2022-09-23T04:56:39.965Z,45.60
2022-09-23T04:59:07.614Z,45.50
2022-09-23T05:01:36.581Z,45.40
2022-09-23T05:04:06.758Z,45.80
2022-09-23T05:06:35.282Z,45.30
2022-09-23T05:09:05.000Z,45.20
2022-09-23T05:11:32.482Z,45.10
2022-09-23T05:13:59.742Z,45.00
2022-09-23T05:16:27.406Z,44.90
2022-09-23T05:18:55.016Z,44.80
2022-09-23T05:21:27.577Z,44.90
2022-09-23T05:23:59.030Z,45.00
2022-09-23T05:26:29.723Z,45.00
2022-09-23T05:28:57.280Z,45.20
2022-09-23T05:31:26.928Z,45.40
2022-09-23T05:34:00.847Z,45.50
2022-09-23T05:36:33.074Z,45.40
2022-09-23T05:39:03.360Z,46.00
2022-09-23T05:41:31.506Z,45.40
2022-09-23T05:43:59.873Z,45.40
2022-09-23T05:46:29.891Z,45.20
2022-09-23T05:49:02.082Z,45.00
2022-09-23T05:51:31.389Z,45.00
2022-09-23T05:53:59.865Z,45.00
2022-09-23T05:56:28.161Z,44.90
2022-09-23T05:58:57.120Z,44.90
2022-09-23T06:01:31.506Z,45.00
2022-09-23T06:03:58.847Z,45.10
2022-09-23T06:06:33.790Z,45.10
2022-09-23T06:09:01.425Z,45.00
2022-09-23T06:11:33.525Z,44.70
2022-09-23T06:14:04.200Z,44.30
2022-09-23T06:16:33.941Z,44.30
2022-09-23T06:19:06.280Z,44.40
2022-09-23T06:21:40.549Z,44.20
2022-09-23T06:24:08.730Z,44.00
2022-09-23T06:26:38.541Z,43.90
2022-09-23T06:29:11.953Z,43.80
2022-09-23T06:31:41.302Z,43.60
2022-09-23T06:34:13.540Z,43.50
2022-09-23T06:36:44.922Z,43.40
2022-09-23T06:39:14.026Z,43.60
2022-09-23T06:41:42.034Z,43.70
2022-09-23T06:44:09.174Z,43.80
2022-09-23T06:46:37.071Z,44.30
2022-09-23T06:49:04.752Z,44.70
2022-09-23T06:51:32.046Z,44.80
2022-09-23T06:53:59.131Z,44.60
2022-09-23T06:56:26.214Z,44.40
2022-09-23T06:58:53.475Z,44.30
2022-09-23T07:01:20.641Z,44.20
2022-09-23T07:03:48.645Z,44.10
2022-09-23T07:06:15.991Z,43.90
2022-09-23T07:08:45.174Z,43.70
2022-09-23T07:11:13.555Z,43.50
2022-09-23T07:13:42.385Z,43.40
2022-09-23T07:16:11.559Z,43.40
2022-09-23T07:18:39.687Z,43.40
2022-09-23T07:21:15.753Z,43.20
2022-09-23T07:23:48.193Z,43.00
2022-09-23T07:26:16.324Z,42.80
2022-09-23T07:28:43.743Z,42.90
2022-09-23T07:31:13.942Z,42.80
2022-09-23T07:33:44.410Z,42.90
2022-09-23T07:36:14.503Z,43.00
2022-09-23T07:38:45.479Z,42.90
2022-09-23T07:41:15.456Z,42.70
2022-09-23T07:43:42.550Z,42.60
2022-09-23T07:46:14.494Z,43.10
2022-09-23T07:48:41.960Z,42.40
2022-09-23T07:51:17.709Z,42.30
2022-09-23T07:53:48.584Z,42.20
2022-09-23T07:56:17.380Z,42.20
2022-09-23T07:58:44.733Z,42.20
2022-09-23T08:01:12.865Z,42.20
2022-09-23T08:03:40.250Z,42.20
2022-09-23T08:06:13.453Z,42.40
2022-09-23T08:08:43.676Z,42.50
2022-09-23T08:11:12.264Z,42.60
2022-09-23T08:13:39.357Z,42.60
2022-09-23T08:16:06.946Z,42.60
2022-09-23T08:18:34.482Z,42.60
2022-09-23T08:21:01.530Z,42.50
2022-09-23T08:23:33.541Z,42.40
2022-09-23T08:26:03.155Z,42.30
2022-09-23T08:28:31.349Z,42.40
2022-09-23T08:30:58.387Z,42.40
2022-09-23T08:33:25.873Z,42.40
2022-09-23T08:35:53.647Z,42.40
2022-09-23T08:38:21.168Z,43.00
2022-09-23T08:40:50.188Z,42.20
2022-09-23T08:43:30.021Z,42.10
2022-09-23T08:46:01.955Z,42.10
2022-09-23T08:48:38.734Z,42.00
2022-09-23T08:51:14.819Z,42.00
2022-09-23T08:53:43.012Z,41.90
2022-09-23T08:56:19.948Z,41.70
2022-09-23T08:59:02.210Z,42.10
2022-09-23T09:01:45.579Z,42.20
2022-09-23T09:04:41.412Z,42.10
2022-09-23T09:07:35.639Z,42.00
2022-09-23T09:10:16.865Z,42.00
2022-09-23T09:12:47.859Z,41.90
2022-09-23T09:15:21.594Z,41.70
2022-09-23T09:18:13.185Z,41.50
2022-09-23T09:21:08.625Z,41.50
2022-09-23T09:23:57.336Z,41.40
2022-09-23T09:26:32.460Z,41.30
2022-09-23T09:29:31.180Z,41.40
2022-09-23T09:31:59.648Z,41.30
2022-09-23T09:34:44.451Z,41.30
2022-09-23T09:37:21.403Z,41.20
2022-09-23T09:39:48.572Z,41.10
2022-09-23T09:42:42.377Z,41.00
2022-09-23T09:45:57.751Z,41.00
2022-09-23T09:48:39.064Z,40.90
2022-09-23T09:51:22.270Z,40.90
2022-09-23T09:53:53.968Z,40.70
2022-09-23T09:56:31.391Z,40.70
2022-09-23T09:59:11.625Z,40.70
2022-09-23T10:01:38.660Z,40.60
2022-09-23T10:04:34.067Z,40.40
2022-09-23T10:07:14.396Z,40.50
2022-09-23T10:09:49.010Z,40.40
2022-09-23T10:12:19.575Z,40.20
2022-09-23T10:14:52.671Z,40.10
2022-09-23T10:17:32.975Z,39.90
2022-09-23T10:20:01.509Z,39.80
2022-09-23T10:22:33.655Z,39.60
2022-09-23T10:25:07.602Z,39.50
2022-09-23T10:27:36.463Z,39.50
2022-09-23T10:30:24.023Z,39.50
2022-09-23T10:32:53.291Z,39.50
2022-09-23T10:35:24.614Z,39.30
2022-09-23T10:38:02.374Z,39.20
2022-09-23T10:40:58.398Z,39.20
2022-09-23T10:44:25.372Z,39.20
2022-09-23T10:47:15.744Z,39.20
2022-09-23T10:50:05.276Z,39.10
2022-09-23T10:52:51.380Z,39.00
2022-09-23T10:55:54.731Z,38.80
2022-09-23T10:59:02.128Z,38.70
2022-09-23T11:02:02.312Z,38.70
2022-09-23T11:04:51.780Z,38.60
2022-09-23T11:07:41.969Z,38.50
2022-09-23T11:10:46.913Z,38.30
2022-09-23T11:13:40.661Z,38.00
2022-09-23T11:16:41.077Z,37.90
2022-09-23T11:19:48.486Z,38.10
2022-09-23T11:22:47.326Z,38.10
2022-09-23T11:25:40.109Z,38.00
2022-09-23T11:28:36.683Z,38.00
2022-09-23T11:31:28.146Z,38.10
2022-09-23T11:34:28.732Z,37.90
2022-09-23T11:37:07.108Z,37.90
2022-09-23T11:39:57.768Z,37.90
2022-09-23T11:42:29.065Z,37.90
2022-09-23T11:45:02.451Z,38.00
2022-09-23T11:47:39.790Z,38.00
2022-09-23T11:50:43.955Z,37.90
2022-09-23T11:53:47.326Z,38.00
2022-09-23T11:56:35.047Z,38.00
2022-09-23T11:59:40.300Z,38.00
2022-09-23T12:02:40.271Z,38.00
2022-09-23T12:05:16.114Z,38.10
2022-09-23T12:08:04.052Z,38.10
2022-09-23T12:11:01.760Z,37.90
2022-09-23T12:14:04.842Z,37.80
2022-09-23T12:17:04.267Z,37.50
2022-09-23T12:20:11.237Z,37.40
2022-09-23T12:23:14.075Z,37.30
2022-09-23T12:25:47.803Z,37.40
2022-09-23T12:28:20.113Z,37.40
2022-09-23T12:30:48.698Z,37.30
2022-09-23T12:33:28.575Z,37.50
2022-09-23T12:36:03.481Z,37.80
2022-09-23T12:38:39.099Z,37.80
2022-09-23T12:41:27.415Z,37.90
2022-09-23T12:43:58.255Z,38.30
2022-09-23T12:46:27.659Z,38.00
2022-09-23T12:49:01.862Z,38.00
2022-09-23T12:51:33.931Z,38.00
2022-09-23T12:54:15.525Z,37.80
2022-09-23T12:56:58.742Z,38.10
2022-09-23T12:59:32.289Z,38.10
2022-09-23T13:02:25.213Z,37.70
2022-09-23T13:05:45.104Z,37.80
2022-09-23T13:08:22.674Z,37.90
2022-09-23T13:11:00.112Z,37.90
2022-09-23T13:13:37.837Z,37.70
2022-09-23T13:16:34.225Z,37.70
2022-09-23T13:19:03.274Z,37.60
2022-09-23T13:22:07.894Z,37.60
2022-09-23T13:24:44.613Z,37.60
2022-09-23T13:27:18.221Z,37.50
2022-09-23T13:30:07.964Z,37.10
2022-09-23T13:32:42.493Z,37.60
2022-09-23T13:35:26.588Z,39.00
2022-09-23T13:37:54.568Z,39.30
2022-09-23T13:40:26.809Z,39.40
2022-09-23T13:43:06.480Z,39.10
2022-09-23T13:45:40.115Z,38.50
2022-09-23T13:48:18.423Z,38.00
2022-09-23T13:50:53.466Z,37.80
2022-09-23T13:53:30.252Z,37.50
2022-09-23T13:56:03.638Z,37.20
2022-09-23T13:58:33.148Z,37.10
2022-09-23T14:01:01.456Z,37.10
2022-09-23T14:03:37.065Z,37.70
2022-09-23T14:06:10.941Z,37.10
2022-09-23T14:08:45.783Z,37.10
2022-09-23T14:11:21.724Z,37.20
2022-09-23T14:13:51.912Z,37.30
2022-09-23T14:16:19.796Z,37.40
2022-09-23T14:18:49.803Z,37.50
2022-09-23T14:21:38.006Z,37.50
2022-09-23T14:24:35.563Z,37.60
2022-09-23T14:27:17.038Z,37.60
2022-09-23T14:29:46.841Z,37.60
2022-09-23T14:32:21.315Z,37.70
2022-09-23T14:35:27.157Z,37.80
2022-09-23T14:38:17.527Z,37.80
2022-09-23T14:41:14.464Z,37.80
2022-09-23T14:43:49.705Z,37.90
2022-09-23T14:46:20.077Z,37.90
2022-09-23T14:48:57.421Z,38.00
2022-09-23T14:51:33.121Z,38.00
2022-09-23T14:54:29.310Z,38.10
2022-09-23T14:56:56.607Z,38.20
2022-09-23T14:59:33.243Z,38.20
2022-09-23T15:02:00.714Z,38.10
2022-09-23T15:04:31.095Z,38.20
2022-09-23T15:07:17.040Z,38.20
2022-09-23T15:09:45.576Z,38.20
2022-09-23T15:12:15.515Z,38.20
2022-09-23T15:14:46.648Z,38.30
2022-09-23T15:17:33.225Z,38.30
2022-09-23T15:20:04.831Z,38.30
2022-09-23T15:22:32.018Z,38.30
2022-09-23T15:25:21.757Z,38.40
2022-09-23T15:28:17.727Z,38.40
2022-09-23T15:30:45.609Z,38.40
2022-09-23T15:33:15.294Z,38.40
2022-09-23T15:35:49.424Z,38.50
2022-09-23T15:38:17.910Z,38.50
2022-09-23T15:40:45.184Z,38.60
2022-09-23T15:43:27.027Z,38.60
2022-09-23T15:46:00.197Z,38.70
2022-09-23T15:48:32.646Z,38.70
2022-09-23T15:51:05.068Z,38.70
2022-09-23T15:53:32.254Z,38.70
2022-09-23T15:56:00.232Z,38.70
2022-09-23T15:58:27.845Z,38.80
2022-09-23T16:00:57.257Z,38.80
2022-09-23T16:03:29.093Z,38.90
2022-09-23T16:06:01.818Z,38.90
2022-09-23T16:08:30.249Z,38.90
2022-09-23T16:10:57.395Z,39.00
2022-09-23T16:13:24.510Z,39.00
2022-09-23T16:15:51.668Z,39.00
2022-09-23T16:18:18.823Z,39.10
2022-09-23T16:20:47.932Z,39.10
2022-09-23T16:23:37.779Z,39.10
2022-09-23T16:26:15.816Z,39.20
2022-09-23T16:28:43.921Z,39.20
2022-09-23T16:31:12.099Z,39.20
2022-09-23T16:33:40.002Z,39.20
2022-09-23T16:36:14.590Z,39.20
2022-09-23T16:38:42.475Z,39.20
2022-09-23T16:41:09.597Z,39.30
2022-09-23T16:43:39.825Z,39.40
2022-09-23T16:46:15.611Z,39.40
2022-09-23T16:48:47.007Z,39.40
2022-09-23T16:51:28.917Z,39.40
2022-09-23T16:53:57.411Z,39.50
2022-09-23T16:56:28.642Z,39.60
2022-09-23T16:58:56.955Z,39.60
2022-09-23T17:01:46.408Z,39.60
2022-09-23T17:04:15.548Z,39.70
2022-09-23T17:06:44.372Z,39.70
2022-09-23T17:09:11.828Z,39.80
2022-09-23T17:11:38.891Z,39.90
2022-09-23T17:14:06.397Z,39.90
2022-09-23T17:16:35.002Z,40.00
2022-09-23T17:19:10.077Z,40.00
2022-09-23T17:21:37.832Z,40.00
2022-09-23T17:24:05.963Z,40.10
2022-09-23T17:26:33.053Z,40.10
2022-09-23T17:29:01.104Z,40.20
2022-09-23T17:31:28.425Z,40.20
2022-09-23T17:33:55.706Z,40.30
2022-09-23T17:36:22.800Z,40.30
2022-09-23T17:38:53.616Z,40.40
2022-09-23T17:41:21.270Z,40.50
2022-09-23T17:43:53.354Z,40.50
2022-09-23T17:46:20.429Z,40.50
2022-09-23T17:48:47.491Z,40.60
2022-09-23T17:51:17.580Z,40.70
2022-09-23T17:53:46.675Z,40.80
2022-09-23T17:56:19.192Z,40.70
2022-09-23T17:58:48.434Z,40.80
2022-09-23T18:01:25.062Z,40.90
2022-09-23T18:04:05.700Z,40.90
2022-09-23T18:06:35.703Z,41.00
2022-09-23T18:09:05.597Z,41.00
2022-09-23T18:11:38.723Z,41.10
2022-09-23T18:14:18.777Z,41.10
2022-09-23T18:16:48.201Z,41.10
2022-09-23T18:19:17.402Z,41.20
2022-09-23T18:21:49.600Z,41.20
2022-09-23T18:24:33.778Z,41.20
2022-09-23T18:27:01.903Z,41.30
2022-09-23T18:29:29.181Z,41.40
2022-09-23T18:31:56.579Z,41.40
2022-09-23T18:34:23.728Z,41.50
2022-09-23T18:36:50.843Z,41.50
2022-09-23T18:39:17.900Z,41.50
2022-09-23T18:41:45.018Z,41.60
2022-09-23T18:44:15.999Z,41.60
2022-09-23T18:46:44.858Z,41.70
2022-09-23T18:49:31.784Z,41.70
2022-09-23T18:51:58.940Z,41.70
2022-09-23T18:54:28.521Z,41.80
2022-09-23T18:56:55.694Z,41.90
2022-09-23T18:59:28.013Z,41.90
2022-09-23T19:01:55.879Z,41.90
2022-09-23T19:04:25.245Z,41.80
2022-09-23T19:06:54.049Z,41.80
2022-09-23T19:09:21.186Z,41.80
2022-09-23T19:11:52.336Z,41.90
2022-09-23T19:14:19.853Z,41.90
2022-09-23T19:16:49.183Z,41.90
2022-09-23T19:19:16.388Z,42.00
2022-09-23T19:21:43.444Z,41.90
2022-09-23T19:24:15.876Z,41.90
2022-09-23T19:26:44.366Z,41.90
2022-09-23T19:29:17.437Z,42.00
2022-09-23T19:31:44.595Z,41.90
2022-09-23T19:34:17.817Z,42.00
2022-09-23T19:36:46.815Z,42.00
2022-09-23T19:39:26.305Z,42.00
2022-09-23T19:41:57.454Z,42.10
2022-09-23T19:44:26.339Z,42.10
2022-09-23T19:46:56.464Z,42.20
2022-09-23T19:49:25.342Z,42.20
2022-09-23T19:51:55.700Z,42.20
2022-09-23T19:54:23.569Z,42.30
2022-09-23T19:56:50.799Z,42.30
2022-09-23T19:59:19.412Z,42.30
2022-09-23T20:01:48.078Z,42.30
2022-09-23T20:04:15.918Z,42.30
2022-09-23T20:06:43.395Z,42.40
2022-09-23T20:09:10.742Z,42.40
2022-09-23T20:11:38.128Z,42.50
2022-09-23T20:14:06.577Z,42.40
2022-09-23T20:16:37.112Z,42.50
2022-09-23T20:19:05.199Z,42.50
2022-09-23T20:21:33.919Z,42.50
2022-09-23T20:24:01.910Z,42.50
2022-09-23T20:26:48.865Z,42.60
2022-09-23T20:29:16.032Z,42.50
2022-09-23T20:31:43.652Z,42.60
2022-09-23T20:34:12.314Z,42.60
2022-09-23T20:36:41.481Z,42.70
2022-09-23T20:39:10.248Z,42.70
2022-09-23T20:41:39.330Z,42.70
2022-09-23T20:44:10.476Z,42.80
2022-09-23T20:46:37.790Z,42.80
2022-09-23T20:49:08.810Z,42.80
2022-09-23T20:51:40.045Z,42.80
2022-09-23T20:54:07.658Z,42.80
2022-09-23T20:56:34.836Z,42.80
2022-09-23T20:59:03.255Z,42.90
2022-09-23T21:01:34.913Z,42.90
2022-09-23T21:04:04.973Z,42.90
2022-09-23T21:06:34.333Z,42.90
2022-09-23T21:09:01.866Z,42.80
2022-09-23T21:11:29.364Z,42.80
2022-09-23T21:13:56.708Z,42.80
2022-09-23T21:16:24.621Z,42.80
2022-09-23T21:18:52.478Z,42.80
2022-09-23T21:21:22.320Z,42.80
2022-09-23T21:23:50.491Z,42.90
2022-09-23T21:26:23.394Z,42.90
2022-09-23T21:28:52.899Z,42.90
2022-09-23T21:31:23.495Z,42.90
2022-09-23T21:33:56.196Z,42.90
2022-09-23T21:36:24.899Z,42.90
2022-09-23T21:38:52.555Z,42.90
2022-09-23T21:41:20.422Z,42.90
2022-09-23T21:43:48.324Z,43.00
2022-09-23T21:46:20.230Z,43.00
2022-09-23T21:48:50.019Z,43.00
2022-09-23T21:51:23.303Z,43.00
2022-09-23T21:53:50.627Z,43.00
2022-09-23T21:56:21.188Z,43.60
2022-09-23T21:58:48.866Z,43.00
2022-09-23T22:01:25.394Z,43.10
2022-09-23T22:03:54.707Z,43.10
2022-09-23T22:06:27.605Z,43.10
2022-09-23T22:09:00.847Z,43.10
2022-09-23T22:11:52.957Z,43.10
2022-09-23T22:14:23.517Z,43.10
2022-09-23T22:16:50.578Z,43.10
2022-09-23T22:19:17.710Z,43.10
2022-09-23T22:21:45.778Z,43.20
2022-09-23T22:24:13.365Z,43.20
2022-09-23T22:26:44.742Z,43.20
2022-09-23T22:29:35.272Z,43.20
2022-09-23T22:32:24.162Z,43.20
2022-09-23T22:34:52.780Z,43.20
2022-09-23T22:37:25.792Z,43.30
2022-09-23T22:39:53.053Z,43.30
2022-09-23T22:42:23.223Z,43.40
2022-09-23T22:44:51.442Z,43.40
2022-09-23T22:47:20.109Z,43.40
2022-09-23T22:49:47.722Z,44.00
2022-09-23T22:52:16.723Z,43.40
2022-09-23T22:54:43.962Z,43.50
2022-09-23T22:57:11.036Z,43.50
2022-09-23T22:59:38.007Z,43.50
2022-09-23T23:02:06.655Z,43.50
2022-09-23T23:04:34.001Z,43.50
2022-09-23T23:07:01.029Z,43.50
2022-09-23T23:09:28.022Z,43.40
2022-09-23T23:11:55.085Z,43.40
2022-09-23T23:14:22.184Z,43.40
2022-09-23T23:16:49.696Z,43.40
2022-09-23T23:19:19.368Z,43.40
2022-09-23T23:21:46.510Z,43.40
2022-09-23T23:24:16.824Z,43.30
2022-09-23T23:26:44.604Z,43.40
2022-09-23T23:29:13.380Z,43.30
2022-09-23T23:31:41.011Z,43.40
2022-09-23T23:34:11.973Z,43.30
2022-09-23T23:36:40.024Z,43.40
2022-09-23T23:39:07.643Z,43.40
2022-09-23T23:41:34.653Z,43.90
2022-09-23T23:44:01.865Z,43.90
2022-09-23T23:46:30.890Z,43.40
2022-09-23T23:48:58.918Z,43.40
2022-09-23T23:51:27.114Z,43.40
2022-09-23T23:53:54.954Z,43.40
2022-09-23T23:56:24.095Z,43.40
2022-09-23T23:58:59.986Z,43.50
